aviador You're here:

CYSF Decoded Metar

STONY RAPIDS in SK, CANADA
Report Time2017-10-21 15:00:00
UTC Time2017-10-21 15:50:17
Flight Rules mvfr MVFR
Wind290° at 04 kt
W.Decomp.*RWY 24: 3.1 kt HW 2.5 kt RCW
W.Rank290° ranks 10
Current wind is below 290° avg. (6.4)
Visibility9999 m
Phenomena:N/A
Clouds:Scattered 009 Hf
Overcast 028 Hf
Ceiling2,800 ft
Temp02°C (ISA -11)
Dew Point02°C (100% RH)
AAT-1.1°C
QNH997 hPa
Density Alt89 ft
Elevation820 ft
Report Wrong Elevation
Raw Report
CYSF 211500Z AUTO 29004KT 9SM SCT009 OVC028 02/02 A2945 RMK
SLP989=

Extra information for CYSF:More info

Metar Taf Metar & Taf Last 4 Metars F.Rules Stats Wind Profile Meteogram Temp Stats Airport Information Weather charts Add Link Nearby VenuesMetar ALERT Operation Metar Decoded Social comments